Pagrindinis puslapis
METAR-TAF:

METAR-TAF

Oro uostai :

Llano Municipal Airport

Llano, Teksasas, Jungtinės Amerikos Valstijos

platuma: 30-47-01N, ilguma: 098-39-43W, Aukštis: 336 m

Dabartinis oras

Ataskaita buvo paskelbta 16 minutes, ne 02:55 UTC
Vėjas 6 kt iš Pietryčių
Temperatūra 22°C
Drėgmė 83%
Slėgis 1012 hPa
Matomumas: 16.1 km
Mažai debesys ne aukštis 4000 ft
Mažai debesys ne aukštis 5500 ft

METAR: KAQO 170255Z AUTO 13006KT 10SM FEW040 FEW055 22/19 A2989 RMK AO2

Laikas: 22:11 (03:11 UTC)


TAF: trūkstamas

Orai ataskaitas ir orų prognozės (METAR, TAF).

turimą stotys yra geltonos ir raudonos taškus žemėlapyje.

Perkelti pele per norėdami pamatyti stoties vardą.

Tada spustelėkite, norėdami matyti oro stebėjimo ir prognozės.

Norėdami pakeisti žemėlapį: spustelėkite ant žalios mygtukų su juodo kryžiaus žemyn,; žalią mygtuką su brūkšneliu, jei norite nutolinti; arba žalių rodyklių gretimoms žemėlapius.


METAR-TAF: